Time;durP1;ratioP1;P1;durP2;ratioP2;P2;SDS_P1;SDS_P2;PMS_P1;PMS_P2;Temp;Humidity;BMP_temperature;BMP_pressure;BME280_temperature;BME280_humidity;BME280_pressure;Samples;Min_cycle;Max_cycle;Signal;HPM_P1;HPM_P2
2022/12/24 00:01:52;;;;;;;53.30;35.30;;;;;;;5.85;100.00;98336.38;436284;1282;141978;-64
2022/12/24 00:11:59;;;;;;;47.70;32.40;;;;;;;5.93;100.00;98337.04;424179;1275;141981;-64
2022/12/24 00:22:05;;;;;;;41.70;30.20;;;;;;;5.91;100.00;98334.23;425921;1275;141759;-64
2022/12/24 00:32:11;;;;;;;43.60;31.40;;;;;;;5.78;100.00;98334.02;436242;1282;141899;-62
2022/12/24 00:42:17;;;;;;;40.00;27.30;;;;;;;5.72;100.00;98330.73;435476;1287;142706;-63
2022/12/24 00:52:23;;;;;;;35.60;26.10;;;;;;;5.69;100.00;98325.04;429657;1280;141362;-63
2022/12/24 01:02:29;;;;;;;32.80;23.10;;;;;;;5.67;100.00;98324.33;436255;1281;142925;-64
2022/12/24 01:12:36;;;;;;;32.40;23.50;;;;;;;5.66;100.00;98324.20;434339;1281;155492;-63
2022/12/24 01:22:42;;;;;;;31.90;22.40;;;;;;;5.68;100.00;98321.43;436082;1281;142163;-63
2022/12/24 01:32:48;;;;;;;32.00;21.70;;;;;;;5.74;100.00;98321.07;426264;1281;141223;-63
2022/12/24 01:53:28;;;;;;;26.80;18.50;;;;;;;5.87;100.00;98311.73;435878;1281;141946;-64
2022/12/24 02:03:34;;;;;;;17.80;14.20;;;;;;;5.87;100.00;98315.34;435424;1281;142670;-64
2022/12/24 02:13:42;;;;;;;21.00;17.20;;;;;;;5.86;100.00;98310.77;436345;1282;143515;-64
2022/12/24 02:24:39;;;;;;;20.40;16.60;;;;;;;5.82;100.00;98309.81;436330;1280;142150;-64
2022/12/24 02:34:51;;;;;;;21.80;17.80;;;;;;;5.85;100.00;98307.36;436449;1282;142307;-64
2022/12/24 02:45:04;;;;;;;21.50;18.40;;;;;;;5.92;100.00;98306.23;436188;1281;141914;-64
2022/12/24 02:55:16;;;;;;;23.80;18.60;;;;;;;5.80;100.00;98308.38;430358;1281;141371;-63
2022/12/24 03:05:30;;;;;;;19.50;15.60;;;;;;;5.56;100.00;98308.15;429295;1281;141157;-63
2022/12/24 03:15:37;;;;;;;20.00;16.80;;;;;;;5.44;100.00;98307.16;422861;1275;141688;-63
2022/12/24 03:25:45;;;;;;;19.80;17.70;;;;;;;5.45;100.00;98309.55;422968;1279;140991;-62
2022/12/24 03:35:51;;;;;;;20.20;17.60;;;;;;;5.49;100.00;98314.33;425355;1275;141797;-62
2022/12/24 03:45:57;;;;;;;23.80;19.20;;;;;;;5.43;100.00;98305.66;423564;1282;141826;-62
2022/12/24 03:56:04;;;;;;;20.40;18.20;;;;;;;5.50;100.00;98310.79;420286;1275;142089;-64
2022/12/24 04:06:12;;;;;;;19.70;16.80;;;;;;;5.45;100.00;98308.85;426092;1274;142684;-63
2022/12/24 04:16:19;;;;;;;20.30;17.50;;;;;;;5.45;100.00;98305.18;423131;1274;141995;-62
2022/12/24 04:26:25;;;;;;;18.60;16.40;;;;;;;5.46;100.00;98299.73;419742;1275;143057;-63
2022/12/24 04:36:31;;;;;;;20.70;16.60;;;;;;;5.52;100.00;98299.23;423936;1275;142731;-63
2022/12/24 04:46:37;;;;;;;21.10;17.80;;;;;;;5.62;100.00;98298.55;426391;1275;143782;-62
2022/12/24 04:56:43;;;;;;;25.50;20.10;;;;;;;5.66;100.00;98299.39;420456;1282;143134;-62
2022/12/24 05:06:50;;;;;;;26.80;20.90;;;;;;;5.50;100.00;98302.65;422366;1282;142266;-63
2022/12/24 05:16:56;;;;;;;26.40;22.00;;;;;;;5.29;100.00;98309.65;422486;1274;141604;-63
2022/12/24 05:27:03;;;;;;;25.50;20.50;;;;;;;5.25;100.00;98315.63;419701;1274;141831;-63
2022/12/24 05:37:10;;;;;;;25.60;22.80;;;;;;;5.27;100.00;98319.14;420292;1275;141506;-62
2022/12/24 05:47:16;;;;;;;26.60;21.60;;;;;;;5.32;100.00;98320.41;421375;1281;141955;-62
2022/12/24 05:57:22;;;;;;;22.40;19.10;;;;;;;5.36;100.00;98327.64;430412;1272;142060;-63
2022/12/24 06:07:29;;;;;;;22.70;20.00;;;;;;;5.37;100.00;98324.98;420950;1275;142005;-62
2022/12/24 06:17:35;;;;;;;21.70;19.20;;;;;;;5.43;100.00;98327.20;421823;1275;142125;-62
2022/12/24 06:27:41;;;;;;;19.00;17.00;;;;;;;5.41;100.00;98330.95;420091;1275;143492;-62
2022/12/24 06:37:47;;;;;;;24.60;19.20;;;;;;;5.41;100.00;98341.89;422017;1274;144439;-62
2022/12/24 06:47:53;;;;;;;22.40;19.90;;;;;;;5.45;100.00;98346.00;420166;1275;142408;-67
2022/12/24 06:57:59;;;;;;;24.20;20.80;;;;;;;5.44;100.00;98356.43;422150;1275;142834;-64
2022/12/24 07:08:06;;;;;;;26.30;22.20;;;;;;;5.44;100.00;98368.95;420124;1277;141353;-62
2022/12/24 07:18:12;;;;;;;26.90;23.60;;;;;;;5.45;100.00;98374.65;419434;1275;143880;-62
2022/12/24 07:28:19;;;;;;;24.50;20.90;;;;;;;5.45;100.00;98383.98;422306;1281;142115;-63
2022/12/24 07:38:33;;;;;;;25.90;22.70;;;;;;;5.52;100.00;98402.50;421164;1274;141603;-63
2022/12/24 07:48:40;;;;;;;24.00;19.40;;;;;;;5.56;100.00;98420.27;422444;1275;142932;-64
2022/12/24 07:58:46;;;;;;;25.30;22.40;;;;;;;5.70;100.00;98432.65;424053;1275;142128;-62
2022/12/24 08:08:51;;;;;;;26.40;22.90;;;;;;;5.71;100.00;98447.51;422271;1275;140767;-64
2022/12/24 08:18:57;;;;;;;21.40;16.60;;;;;;;5.69;100.00;98452.69;424036;1275;141449;-64
2022/12/24 08:29:05;;;;;;;20.50;16.20;;;;;;;5.71;100.00;98462.58;421649;1281;141643;-62
2022/12/24 08:39:11;;;;;;;19.40;12.80;;;;;;;5.80;100.00;98475.77;422034;1282;141507;-63
2022/12/24 08:49:17;;;;;;;12.60;9.80;;;;;;;5.67;100.00;98482.09;423036;1278;183363;-64
2022/12/24 08:59:24;;;;;;;8.90;7.50;;;;;;;5.58;100.00;98497.94;422900;1275;142758;-63
2022/12/24 09:09:30;;;;;;;9.80;8.30;;;;;;;5.56;100.00;98508.80;423948;1274;141542;-63
2022/12/24 09:19:42;;;;;;;8.40;5.90;;;;;;;5.57;100.00;98522.11;422888;1275;141602;-62
2022/12/24 09:29:48;;;;;;;9.20;7.00;;;;;;;5.58;100.00;98533.88;423274;1275;140537;-62
2022/12/24 09:39:54;;;;;;;7.10;6.40;;;;;;;5.61;100.00;98544.13;422763;1281;141278;-64
2022/12/24 09:50:04;;;;;;;7.90;6.30;;;;;;;5.66;100.00;98559.66;436682;1284;141485;-63
2022/12/24 10:00:21;;;;;;;5.90;5.40;;;;;;;5.64;100.00;98572.95;435772;1278;142525;-63
2022/12/24 10:10:37;;;;;;;8.30;6.70;;;;;;;5.65;100.00;98588.70;436672;1274;141350;-62
2022/12/24 10:20:51;;;;;;;9.00;7.10;;;;;;;5.59;100.00;98605.18;434929;1281;142463;-63
2022/12/24 10:31:04;;;;;;;9.70;7.70;;;;;;;5.52;100.00;98609.05;430673;1280;142031;-61
2022/12/24 10:41:10;;;;;;;14.30;11.90;;;;;;;5.41;100.00;98627.39;434733;1281;141740;-63
2022/12/24 10:51:23;;;;;;;14.50;11.20;;;;;;;5.38;100.00;98642.15;435901;1274;142553;-65
2022/12/24 11:01:47;;;;;;;18.10;14.10;;;;;;;5.43;100.00;98659.55;423440;1281;142178;-63
2022/12/24 11:11:54;;;;;;;16.60;14.60;;;;;;;5.44;100.00;98678.77;436561;1281;142715;-63
2022/12/24 11:22:03;;;;;;;17.90;14.40;;;;;;;5.49;100.00;98690.31;434672;1274;145060;-63
2022/12/24 11:32:20;;;;;;;14.90;11.60;;;;;;;5.47;100.00;98700.30;424848;1275;145349;-63
2022/12/24 11:42:30;;;;;;;17.00;13.60;;;;;;;5.42;100.00;98720.52;435574;1280;142731;-64
2022/12/24 11:52:38;;;;;;;18.10;13.80;;;;;;;5.23;100.00;98735.67;436537;1282;141380;-65
2022/12/24 12:02:47;;;;;;;20.90;14.90;;;;;;;5.06;100.00;98756.55;421582;1281;141790;-64
2022/12/24 12:13:00;;;;;;;24.60;16.30;;;;;;;4.95;100.00;98775.39;418389;1282;142779;-64
2022/12/24 12:23:16;;;;;;;39.50;25.30;;;;;;;4.82;100.00;98784.17;436014;1280;142400;-64
2022/12/24 12:33:31;;;;;;;16.70;12.10;;;;;;;4.71;100.00;98800.55;433331;1277;142444;-64
2022/12/24 12:43:59;;;;;;;16.80;12.30;;;;;;;4.66;100.00;98821.27;419689;1281;142747;-64
2022/12/24 12:54:21;;;;;;;15.20;12.10;;;;;;;4.65;100.00;98835.90;435465;1276;142073;-63
2022/12/24 13:04:59;;;;;;;14.40;11.10;;;;;;;4.69;100.00;98854.40;436270;1284;143006;-63
2022/12/24 13:15:29;;;;;;;13.30;10.30;;;;;;;4.68;100.00;98873.48;435261;1277;176808;-64
2022/12/24 13:25:40;;;;;;;15.90;13.40;;;;;;;4.71;100.00;98895.91;436230;1282;141996;-64
2022/12/24 13:36:03;;;;;;;16.40;12.90;;;;;;;4.74;100.00;98911.20;432357;1280;142412;-64
2022/12/24 13:46:09;;;;;;;19.50;14.40;;;;;;;4.66;100.00;98927.04;435789;1284;210431;-64
2022/12/24 13:56:26;;;;;;;19.90;15.60;;;;;;;4.59;100.00;98937.91;436243;1284;142589;-63
2022/12/24 14:06:36;;;;;;;20.40;13.50;;;;;;;4.59;100.00;98946.41;435795;1281;142690;-65
2022/12/24 14:16:51;;;;;;;23.50;15.40;;;;;;;4.60;100.00;98952.25;436628;1286;143145;-63
2022/12/24 14:27:01;;;;;;;17.70;12.40;;;;;;;4.58;100.00;98973.54;436574;1289;142061;-63
2022/12/24 14:37:10;;;;;;;15.20;12.60;;;;;;;4.51;100.00;98999.34;436078;1281;143017;-64
2022/12/24 14:47:30;;;;;;;18.70;14.00;;;;;;;4.56;100.00;99030.80;436319;1282;142057;-64
2022/12/24 14:57:36;;;;;;;21.20;13.90;;;;;;;4.58;100.00;99039.55;435851;1278;143199;-64
2022/12/24 15:07:46;;;;;;;16.30;12.70;;;;;;;4.64;100.00;99050.55;431549;1281;142675;-65
2022/12/24 15:17:54;;;;;;;16.10;12.80;;;;;;;4.60;100.00;99063.73;434542;1286;141600;-64
2022/12/24 15:28:00;;;;;;;18.60;13.20;;;;;;;4.61;100.00;99074.79;432557;1281;143781;-64
2022/12/24 15:38:06;;;;;;;19.90;14.70;;;;;;;4.61;100.00;99094.89;420126;1281;142078;-63
2022/12/24 15:48:19;;;;;;;24.20;15.80;;;;;;;4.45;100.00;99104.12;431633;1277;143174;-64
2022/12/24 15:58:31;;;;;;;24.20;17.50;;;;;;;4.28;100.00;99108.02;419836;1275;140688;-63
2022/12/24 16:08:38;;;;;;;29.30;18.70;;;;;;;4.27;100.00;99108.79;428929;1281;142949;-63
2022/12/24 16:18:53;;;;;;;23.70;16.10;;;;;;;4.33;100.00;99107.13;435776;1285;142991;-65
2022/12/24 16:28:59;;;;;;;21.70;14.60;;;;;;;4.41;100.00;99119.05;436511;1285;142145;-63
2022/12/24 16:39:24;;;;;;;23.10;15.70;;;;;;;4.38;100.00;99125.94;435696;1280;143158;-63
2022/12/24 16:49:30;;;;;;;19.80;14.00;;;;;;;4.43;100.00;99145.14;429721;1275;142552;-65
2022/12/24 16:59:39;;;;;;;19.80;14.40;;;;;;;4.46;100.00;99160.92;428876;1280;144074;-64
2022/12/24 17:09:44;;;;;;;22.10;15.10;;;;;;;4.53;100.00;99167.38;435824;1281;142192;-64
2022/12/24 17:19:50;;;;;;;22.70;15.80;;;;;;;4.56;100.00;99171.77;436619;1280;142193;-64
2022/12/24 17:29:56;;;;;;;21.50;15.20;;;;;;;4.56;100.00;99179.74;436511;1281;140596;-64
2022/12/24 17:40:03;;;;;;;20.90;14.90;;;;;;;4.44;100.00;99193.77;432119;1274;140766;-64
2022/12/24 17:50:11;;;;;;;22.90;16.50;;;;;;;4.45;100.00;99201.53;420135;1275;141362;-63
2022/12/24 18:00:19;;;;;;;18.10;13.50;;;;;;;4.49;100.00;99212.11;432433;1281;142564;-65
2022/12/24 18:10:25;;;;;;;38.00;22.80;;;;;;;4.59;100.00;99226.08;436356;1280;142272;-64
2022/12/24 18:20:33;;;;;;;47.70;26.90;;;;;;;4.63;100.00;99229.01;436451;1281;141668;-65
2022/12/24 18:30:40;;;;;;;65.10;32.40;;;;;;;4.71;100.00;99243.90;435782;1274;141861;-65
2022/12/24 18:40:46;;;;;;;42.30;28.80;;;;;;;4.61;100.00;99256.99;436434;1281;142663;-64
2022/12/24 18:50:58;;;;;;;33.40;23.90;;;;;;;4.59;100.00;99257.77;436369;1281;141984;-65
2022/12/24 19:01:11;;;;;;;26.70;19.40;;;;;;;4.63;100.00;99261.95;424202;1272;197436;-65
2022/12/24 19:11:17;;;;;;;29.60;23.30;;;;;;;4.67;100.00;99279.11;436485;1281;141858;-64
2022/12/24 19:21:23;;;;;;;31.70;25.30;;;;;;;4.75;100.00;99287.77;435701;1274;146609;-64
2022/12/24 19:31:30;;;;;;;36.20;26.30;;;;;;;4.77;100.00;99290.28;436466;1281;141407;-64
2022/12/24 19:41:37;;;;;;;26.80;20.40;;;;;;;4.58;100.00;99287.48;436440;1282;141622;-64
2022/12/24 19:51:43;;;;;;;37.00;25.40;;;;;;;4.51;100.00;99309.10;431293;1274;143288;-63
2022/12/24 20:01:50;;;;;;;37.00;26.10;;;;;;;4.55;100.00;99326.96;432880;1281;141858;-63
2022/12/24 20:11:57;;;;;;;43.30;30.70;;;;;;;4.57;100.00;99347.85;436387;1280;142736;-63
2022/12/24 20:22:05;;;;;;;45.70;33.20;;;;;;;4.58;100.00;99368.27;435883;1281;142095;-63
2022/12/24 20:32:11;;;;;;;43.50;29.10;;;;;;;4.55;100.00;99375.35;436492;1281;142556;-64
2022/12/24 20:42:17;;;;;;;33.90;20.80;;;;;;;4.59;100.00;99371.30;435677;1281;142238;-64
2022/12/24 20:52:24;;;;;;;31.40;21.70;;;;;;;4.61;100.00;99374.36;436275;1275;142395;-64
2022/12/24 21:02:30;;;;;;;34.10;19.30;;;;;;;4.62;100.00;99383.51;420563;1274;143177;-64
2022/12/24 21:12:48;;;;;;;34.20;21.40;;;;;;;4.68;100.00;99389.88;435682;1288;142938;-63
2022/12/24 21:22:55;;;;;;;33.80;20.20;;;;;;;4.52;100.00;99396.77;436448;1273;141303;-65
2022/12/24 21:33:06;;;;;;;32.40;21.10;;;;;;;4.28;100.00;99407.84;435732;1280;141485;-63
2022/12/24 21:43:12;;;;;;;31.60;21.50;;;;;;;4.10;100.00;99401.60;435862;1281;142144;-64
2022/12/24 22:03:41;;;;;;;21.90;15.20;;;;;;;4.46;100.00;99410.36;435710;1278;143000;-64
2022/12/24 22:13:47;;;;;;;22.30;14.80;;;;;;;4.62;100.00;99416.63;436390;1281;142911;-64
2022/12/24 22:23:53;;;;;;;25.30;16.50;;;;;;;4.72;100.00;99411.20;436431;1281;142882;-64
2022/12/24 22:33:59;;;;;;;26.90;16.80;;;;;;;4.71;100.00;99400.50;435669;1278;142837;-65
2022/12/24 22:44:05;;;;;;;28.50;18.00;;;;;;;4.67;100.00;99404.46;436445;1281;142910;-64
2022/12/24 22:54:11;;;;;;;32.90;19.90;;;;;;;4.50;100.00;99416.24;435683;1274;141859;-64
2022/12/24 23:04:18;;;;;;;37.40;23.50;;;;;;;4.40;100.00;99429.83;431563;1275;141690;-63
2022/12/24 23:24:47;;;;;;;44.20;23.60;;;;;;;4.21;100.00;99463.73;435664;1280;142396;-63
2022/12/24 23:34:53;;;;;;;37.90;22.50;;;;;;;4.25;100.00;99463.91;430578;1275;142520;-62
2022/12/24 23:44:59;;;;;;;33.60;23.20;;;;;;;4.28;100.00;99485.27;420177;1280;142393;-62
2022/12/24 23:55:07;;;;;;;38.10;24.40;;;;;;;4.45;100.00;99495.70;424544;1281;211212;-62
